sensor_id;sensor_type;location;lat;lon;timestamp;pressure;altitude;pressure_sealevel;temperature;humidity
64023;BME280;50264;52.088;5.296;2023-02-14T00:00:21;103470.0;;;2.27;90.32
64023;BME280;50264;52.088;5.296;2023-02-14T00:01:57;103470.0;;;2.21;90.88
64023;BME280;50264;52.088;5.296;2023-02-14T00:03:33;103473.0;;;2.12;90.86
64023;BME280;50264;52.088;5.296;2023-02-14T00:06:46;103472.0;;;2.11;91.41
64023;BME280;50264;52.088;5.296;2023-02-14T00:08:23;103470.0;;;2.25;90.75
64023;BME280;50264;52.088;5.296;2023-02-14T00:09:59;103468.0;;;2.35;90.04
64023;BME280;50264;52.088;5.296;2023-02-14T00:13:12;103471.0;;;2.44;89.65
64023;BME280;50264;52.088;5.296;2023-02-14T00:15:53;103470.0;;;2.29;89.89
64023;BME280;50264;52.088;5.296;2023-02-14T00:17:30;103465.00000000001;;;2.17;90.15
64023;BME280;50264;52.088;5.296;2023-02-14T00:19:06;103465.00000000001;;;2.09;90.58
64023;BME280;50264;52.088;5.296;2023-02-14T00:20:43;103458.99999999999;;;1.93;90.88
64023;BME280;50264;52.088;5.296;2023-02-14T00:22:19;103468.0;;;2.02;91.06
64023;BME280;50264;52.088;5.296;2023-02-14T00:25:32;103468.0;;;2.08;90.75
64023;BME280;50264;52.088;5.296;2023-02-14T00:27:09;103463.00000000001;;;2.09;90.38
64023;BME280;50264;52.088;5.296;2023-02-14T00:28:45;103458.0;;;1.99;90.83
64023;BME280;50264;52.088;5.296;2023-02-14T00:31:57;103459.99999999999;;;1.75;91.44
64023;BME280;50264;52.088;5.296;2023-02-14T00:33:34;103464.00000000001;;;1.84;91.46
64023;BME280;50264;52.088;5.296;2023-02-14T00:35:11;103459.99999999999;;;1.84;91.09
64023;BME280;50264;52.088;5.296;2023-02-14T00:38:27;103456.0;;;2.02;90.82
64023;BME280;50264;52.088;5.296;2023-02-14T00:40:05;103457.0;;;2.04;90.46
64023;BME280;50264;52.088;5.296;2023-02-14T00:41:42;103458.99999999999;;;1.85;90.78
64023;BME280;50264;52.088;5.296;2023-02-14T00:43:18;103456.0;;;1.78;91.37
64023;BME280;50264;52.088;5.296;2023-02-14T00:46:31;103456.0;;;1.7;91.46
64023;BME280;50264;52.088;5.296;2023-02-14T00:48:08;103451.0;;;1.56;91.54
64023;BME280;50264;52.088;5.296;2023-02-14T00:49:44;103452.0;;;1.55;92.15
64023;BME280;50264;52.088;5.296;2023-02-14T00:52:57;103450.0;;;1.53;92.04
64023;BME280;50264;52.088;5.296;2023-02-14T00:54:33;103450.0;;;1.67;92.14
64023;BME280;50264;52.088;5.296;2023-02-14T00:56:10;103451.0;;;1.88;91.28
64023;BME280;50264;52.088;5.296;2023-02-14T00:59:23;103447.0;;;1.85;90.79
64023;BME280;50264;52.088;5.296;2023-02-14T01:00:59;103443.0;;;1.69;91.05
64023;BME280;50264;52.088;5.296;2023-02-14T01:02:35;103442.0;;;1.56;91.7
64023;BME280;50264;52.088;5.296;2023-02-14T01:04:11;103445.0;;;1.52;91.86
64023;BME280;50264;52.088;5.296;2023-02-14T01:07:25;103449.0;;;1.81;91.72
64023;BME280;50264;52.088;5.296;2023-02-14T01:09:01;103445.0;;;1.92;90.73
64023;BME280;50264;52.088;5.296;2023-02-14T01:10:38;103448.0;;;1.99;90.3
64023;BME280;50264;52.088;5.296;2023-02-14T01:13:54;103444.0;;;2.05;89.42
64023;BME280;50264;52.088;5.296;2023-02-14T01:15:32;103443.0;;;2.02;89.42
64023;BME280;50264;52.088;5.296;2023-02-14T01:17:13;103436.99999999999;;;2.13;88.9
64023;BME280;50264;52.088;5.296;2023-02-14T01:18:49;103433.99999999999;;;1.9;89.01
64023;BME280;50264;52.088;5.296;2023-02-14T01:22:02;103439.00000000001;;;1.72;89.71
64023;BME280;50264;52.088;5.296;2023-02-14T01:23:38;103434.99999999999;;;1.58;90.66
64023;BME280;50264;52.088;5.296;2023-02-14T01:25:16;103433.0;;;1.44;90.97
64023;BME280;50264;52.088;5.296;2023-02-14T01:28:29;103432.0;;;1.43;91.45
64023;BME280;50264;52.088;5.296;2023-02-14T01:30:06;103425.0;;;1.36;91.73
64023;BME280;50264;52.088;5.296;2023-02-14T01:31:43;103426.0;;;1.35;91.45
64023;BME280;50264;52.088;5.296;2023-02-14T01:34:56;103428.0;;;1.32;91.8
64023;BME280;50264;52.088;5.296;2023-02-14T01:36:36;103433.0;;;1.41;91.67
64023;BME280;50264;52.088;5.296;2023-02-14T01:38:14;103428.0;;;1.44;91.3
64023;BME280;50264;52.088;5.296;2023-02-14T01:39:50;103430.0;;;1.52;91.39
64023;BME280;50264;52.088;5.296;2023-02-14T01:43:10;103429.0;;;1.59;90.61
64023;BME280;50264;52.088;5.296;2023-02-14T01:44:59;103431.0;;;1.63;90.79
64023;BME280;50264;52.088;5.296;2023-02-14T01:46:40;103427.0;;;1.79;90.52
64023;BME280;50264;52.088;5.296;2023-02-14T01:48:19;103425.0;;;1.7;90.42
64023;BME280;50264;52.088;5.296;2023-02-14T01:51:44;103425.0;;;1.75;90.18
64023;BME280;50264;52.088;5.296;2023-02-14T01:53:25;103419.0;;;1.8;90.0
64023;BME280;50264;52.088;5.296;2023-02-14T01:55:07;103417.0;;;1.96;89.38
64023;BME280;50264;52.088;5.296;2023-02-14T01:56:46;103419.0;;;1.72;89.64
64023;BME280;50264;52.088;5.296;2023-02-14T02:01:11;103421.0;;;1.56;90.27
64023;BME280;50264;52.088;5.296;2023-02-14T02:02:49;103416.00000000001;;;1.43;91.13
64023;BME280;50264;52.088;5.296;2023-02-14T02:06:12;103421.0;;;1.48;91.16
64023;BME280;50264;52.088;5.296;2023-02-14T02:07:51;103420.0;;;1.52;90.85
64023;BME280;50264;52.088;5.296;2023-02-14T02:09:32;103422.0;;;1.48;91.18
64023;BME280;50264;52.088;5.296;2023-02-14T02:11:10;103413.00000000001;;;1.38;91.29
64023;BME280;50264;52.088;5.296;2023-02-14T02:14:26;103420.0;;;1.35;91.74
64023;BME280;50264;52.088;5.296;2023-02-14T02:16:18;103418.0;;;1.33;91.73
64023;BME280;50264;52.088;5.296;2023-02-14T02:18:02;103426.0;;;1.28;91.96
64023;BME280;50264;52.088;5.296;2023-02-14T02:20:08;103419.0;;;1.32;92.27
64023;BME280;50264;52.088;5.296;2023-02-14T02:24:00;103419.0;;;1.36;91.66
64023;BME280;50264;52.088;5.296;2023-02-14T02:30:34;103420.0;;;1.4;90.97
64023;BME280;50264;52.088;5.296;2023-02-14T02:32:49;103422.0;;;1.29;91.63
64023;BME280;50264;52.088;5.296;2023-02-14T02:36:30;103416.00000000001;;;1.22;92.08
64023;BME280;50264;52.088;5.296;2023-02-14T02:38:30;103424.0;;;1.13;92.4
64023;BME280;50264;52.088;5.296;2023-02-14T02:42:11;103423.0;;;1.06;92.72
64023;BME280;50264;52.088;5.296;2023-02-14T02:44:03;103418.0;;;1.07;92.68
64023;BME280;50264;52.088;5.296;2023-02-14T02:46:54;103416.00000000001;;;1.03;92.41
64023;BME280;50264;52.088;5.296;2023-02-14T02:48:40;103413.00000000001;;;1.03;92.62
64023;BME280;50264;52.088;5.296;2023-02-14T02:54:33;103408.99999999999;;;1.05;92.96
64023;BME280;50264;52.088;5.296;2023-02-14T02:57:21;103415.00000000001;;;1.13;92.83
64023;BME280;50264;52.088;5.296;2023-02-14T02:59:04;103414.00000000001;;;1.11;92.65
64023;BME280;50264;52.088;5.296;2023-02-14T03:00:45;103411.99999999999;;;1.1;92.73
64023;BME280;50264;52.088;5.296;2023-02-14T03:02:27;103411.99999999999;;;1.08;92.77
64023;BME280;50264;52.088;5.296;2023-02-14T03:05:09;103409.99999999999;;;1.07;93.1
64023;BME280;50264;52.088;5.296;2023-02-14T03:06:46;103405.0;;;1.11;92.7
64023;BME280;50264;52.088;5.296;2023-02-14T03:08:22;103403.0;;;1.12;92.26
64023;BME280;50264;52.088;5.296;2023-02-14T03:10:00;103402.0;;;1.12;92.32
64023;BME280;50264;52.088;5.296;2023-02-14T03:13:42;103398.0;;;1.08;92.33
64023;BME280;50264;52.088;5.296;2023-02-14T03:16:33;103392.0;;;1.16;92.05
64023;BME280;50264;52.088;5.296;2023-02-14T03:20:40;103392.0;;;1.19;91.4
64023;BME280;50264;52.088;5.296;2023-02-14T03:22:29;103392.0;;;0.94;92.18
64023;BME280;50264;52.088;5.296;2023-02-14T03:26:11;103392.0;;;0.91;92.39
64023;BME280;50264;52.088;5.296;2023-02-14T03:27:54;103393.0;;;0.93;92.64
64023;BME280;50264;52.088;5.296;2023-02-14T03:29:44;103392.0;;;0.89;92.56
64023;BME280;50264;52.088;5.296;2023-02-14T03:31:29;103392.0;;;0.81;92.95
64023;BME280;50264;52.088;5.296;2023-02-14T03:33:15;103395.0;;;0.78;93.06
64023;BME280;50264;52.088;5.296;2023-02-14T03:34:59;103390.00000000001;;;0.74;93.18
64023;BME280;50264;52.088;5.296;2023-02-14T03:38:29;103391.00000000001;;;0.69;93.49
64023;BME280;50264;52.088;5.296;2023-02-14T03:40:12;103395.0;;;0.66;93.52
64023;BME280;50264;52.088;5.296;2023-02-14T03:41:53;103392.0;;;0.7;93.58
64023;BME280;50264;52.088;5.296;2023-02-14T03:43:40;103393.0;;;0.83;93.3
64023;BME280;50264;52.088;5.296;2023-02-14T03:45:22;103396.0;;;0.76;93.29
64023;BME280;50264;52.088;5.296;2023-02-14T03:48:45;103392.0;;;0.7;93.17
64023;BME280;50264;52.088;5.296;2023-02-14T03:50:26;103393.0;;;0.74;93.25
64023;BME280;50264;52.088;5.296;2023-02-14T03:52:06;103393.0;;;0.84;93.12
64023;BME280;50264;52.088;5.296;2023-02-14T03:53:50;103391.00000000001;;;1.07;92.19
64023;BME280;50264;52.088;5.296;2023-02-14T03:59:03;103383.99999999999;;;1.24;90.89
64023;BME280;50264;52.088;5.296;2023-02-14T04:00:42;103390.00000000001;;;1.06;90.85
64023;BME280;50264;52.088;5.296;2023-02-14T04:02:26;103395.0;;;0.94;91.32
64023;BME280;50264;52.088;5.296;2023-02-14T04:05:46;103394.0;;;0.87;91.75
64023;BME280;50264;52.088;5.296;2023-02-14T04:07:23;103392.0;;;0.79;92.17
64023;BME280;50264;52.088;5.296;2023-02-14T04:08:59;103392.0;;;0.8;92.64
64023;BME280;50264;52.088;5.296;2023-02-14T04:10:36;103394.0;;;0.79;93.08
64023;BME280;50264;52.088;5.296;2023-02-14T04:13:53;103394.0;;;0.74;92.77
64023;BME280;50264;52.088;5.296;2023-02-14T04:15:29;103392.0;;;0.69;92.85
64023;BME280;50264;52.088;5.296;2023-02-14T04:19:27;103396.0;;;0.81;93.21
64023;BME280;50264;52.088;5.296;2023-02-14T04:21:04;103392.0;;;0.71;93.26
64023;BME280;50264;52.088;5.296;2023-02-14T04:24:17;103392.0;;;0.68;93.5
64023;BME280;50264;52.088;5.296;2023-02-14T04:25:54;103394.0;;;0.64;93.16
64023;BME280;50264;52.088;5.296;2023-02-14T04:27:30;103396.0;;;0.61;93.64
64023;BME280;50264;52.088;5.296;2023-02-14T04:30:42;103393.0;;;0.58;93.89
64023;BME280;50264;52.088;5.296;2023-02-14T04:32:20;103397.0;;;0.58;93.71
64023;BME280;50264;52.088;5.296;2023-02-14T04:33:57;103396.0;;;0.52;93.69
64023;BME280;50264;52.088;5.296;2023-02-14T04:35:34;103392.0;;;0.53;93.66
64023;BME280;50264;52.088;5.296;2023-02-14T04:38:47;103392.0;;;0.58;93.79
64023;BME280;50264;52.088;5.296;2023-02-14T04:40:23;103391.00000000001;;;0.69;93.52
64023;BME280;50264;52.088;5.296;2023-02-14T04:41:59;103394.0;;;0.75;92.27
64023;BME280;50264;52.088;5.296;2023-02-14T04:45:12;103392.0;;;0.73;92.57
64023;BME280;50264;52.088;5.296;2023-02-14T04:46:49;103389.00000000001;;;0.74;92.95
64023;BME280;50264;52.088;5.296;2023-02-14T04:48:25;103388.00000000001;;;0.7;93.09
64023;BME280;50264;52.088;5.296;2023-02-14T04:51:38;103386.99999999999;;;0.71;92.9
64023;BME280;50264;52.088;5.296;2023-02-14T04:53:14;103386.99999999999;;;0.65;92.98
64023;BME280;50264;52.088;5.296;2023-02-14T04:54:51;103388.00000000001;;;0.65;93.2
64023;BME280;50264;52.088;5.296;2023-02-14T04:56:28;103380.0;;;0.73;92.97
64023;BME280;50264;52.088;5.296;2023-02-14T04:59:40;103383.0;;;0.66;92.47
64023;BME280;50264;52.088;5.296;2023-02-14T05:01:16;103380.0;;;0.74;92.49
64023;BME280;50264;52.088;5.296;2023-02-14T05:02:53;103384.99999999999;;;0.63;92.74
64023;BME280;50264;52.088;5.296;2023-02-14T05:06:05;103376.0;;;0.78;92.76
64023;BME280;50264;52.088;5.296;2023-02-14T05:07:41;103374.0;;;0.79;92.6
64023;BME280;50264;52.088;5.296;2023-02-14T05:09:18;103381.0;;;0.75;92.01
64023;BME280;50264;52.088;5.296;2023-02-14T05:12:30;103376.0;;;0.7;92.34
64023;BME280;50264;52.088;5.296;2023-02-14T05:14:07;103371.0;;;0.67;92.82
64023;BME280;50264;52.088;5.296;2023-02-14T05:15:44;103371.0;;;0.81;92.6
64023;BME280;50264;52.088;5.296;2023-02-14T05:17:20;103368.0;;;0.78;92.09
64023;BME280;50264;52.088;5.296;2023-02-14T05:20:32;103371.0;;;0.67;92.72
64023;BME280;50264;52.088;5.296;2023-02-14T05:22:08;103373.0;;;0.71;92.94
64023;BME280;50264;52.088;5.296;2023-02-14T05:23:45;103374.0;;;0.73;93.27
64023;BME280;50264;52.088;5.296;2023-02-14T05:26:57;103373.0;;;0.81;92.97
64023;BME280;50264;52.088;5.296;2023-02-14T05:28:34;103373.0;;;0.81;93.22
64023;BME280;50264;52.088;5.296;2023-02-14T05:30:12;103372.0;;;0.81;92.98
64023;BME280;50264;52.088;5.296;2023-02-14T05:33:25;103372.0;;;0.79;92.2
64023;BME280;50264;52.088;5.296;2023-02-14T05:35:02;103375.0;;;0.85;92.7
64023;BME280;50264;52.088;5.296;2023-02-14T05:36:39;103372.0;;;0.84;92.38
64023;BME280;50264;52.088;5.296;2023-02-14T05:38:15;103370.0;;;1.03;91.77
64023;BME280;50264;52.088;5.296;2023-02-14T05:41:28;103368.0;;;1.04;91.33
64023;BME280;50264;52.088;5.296;2023-02-14T05:43:05;103369.0;;;1.01;91.1
64023;BME280;50264;52.088;5.296;2023-02-14T05:44:42;103372.0;;;0.89;91.54
64023;BME280;50264;52.088;5.296;2023-02-14T05:47:54;103375.0;;;0.97;91.81
64023;BME280;50264;52.088;5.296;2023-02-14T05:49:30;103373.0;;;1.08;91.65
64023;BME280;50264;52.088;5.296;2023-02-14T05:51:08;103371.0;;;1.04;91.12
64023;BME280;50264;52.088;5.296;2023-02-14T05:54:21;103370.0;;;1.04;91.22
64023;BME280;50264;52.088;5.296;2023-02-14T05:55:57;103380.0;;;0.99;91.38
64023;BME280;50264;52.088;5.296;2023-02-14T05:57:33;103379.0;;;0.9;91.59
64023;BME280;50264;52.088;5.296;2023-02-14T05:59:10;103378.0;;;0.98;91.84
64023;BME280;50264;52.088;5.296;2023-02-14T06:02:23;103376.0;;;1.05;91.38
64023;BME280;50264;52.088;5.296;2023-02-14T06:03:59;103364.00000000001;;;1.13;91.14
64023;BME280;50264;52.088;5.296;2023-02-14T06:05:35;103367.0;;;1.15;90.75
64023;BME280;50264;52.088;5.296;2023-02-14T06:08:47;103366.00000000001;;;1.08;90.92
64023;BME280;50264;52.088;5.296;2023-02-14T06:10:24;103364.00000000001;;;1.08;91.29
64023;BME280;50264;52.088;5.296;2023-02-14T06:12:00;103371.0;;;1.05;91.5
64023;BME280;50264;52.088;5.296;2023-02-14T06:15:13;103367.0;;;1.05;91.3
64023;BME280;50264;52.088;5.296;2023-02-14T06:16:50;103369.0;;;1.01;91.37
64023;BME280;50264;52.088;5.296;2023-02-14T06:18:28;103371.0;;;0.94;91.57
64023;BME280;50264;52.088;5.296;2023-02-14T06:20:06;103370.0;;;0.95;91.59
64023;BME280;50264;52.088;5.296;2023-02-14T06:23:18;103376.0;;;0.91;91.72
64023;BME280;50264;52.088;5.296;2023-02-14T06:24:55;103376.0;;;0.97;91.5
64023;BME280;50264;52.088;5.296;2023-02-14T06:26:32;103373.0;;;0.92;91.19
64023;BME280;50264;52.088;5.296;2023-02-14T06:29:44;103377.0;;;0.91;91.59
64023;BME280;50264;52.088;5.296;2023-02-14T06:31:21;103380.0;;;0.95;91.65
64023;BME280;50264;52.088;5.296;2023-02-14T06:33:00;103386.99999999999;;;0.85;91.86
64023;BME280;50264;52.088;5.296;2023-02-14T06:36:15;103386.99999999999;;;0.81;92.05
64023;BME280;50264;52.088;5.296;2023-02-14T06:37:52;103390.00000000001;;;0.8;92.04
64023;BME280;50264;52.088;5.296;2023-02-14T06:39:29;103388.00000000001;;;0.91;91.92
64023;BME280;50264;52.088;5.296;2023-02-14T06:41:06;103390.00000000001;;;0.91;91.64
64023;BME280;50264;52.088;5.296;2023-02-14T06:44:19;103392.0;;;0.88;91.74
64023;BME280;50264;52.088;5.296;2023-02-14T06:45:56;103391.00000000001;;;0.85;91.57
64023;BME280;50264;52.088;5.296;2023-02-14T06:47:32;103384.99999999999;;;0.89;91.86
64023;BME280;50264;52.088;5.296;2023-02-14T06:50:45;103383.0;;;0.9;91.72
64023;BME280;50264;52.088;5.296;2023-02-14T06:52:22;103383.0;;;0.85;91.63
64023;BME280;50264;52.088;5.296;2023-02-14T06:53:58;103386.99999999999;;;0.93;91.63
64023;BME280;50264;52.088;5.296;2023-02-14T06:57:11;103381.0;;;0.97;91.47
64023;BME280;50264;52.088;5.296;2023-02-14T06:58:47;103378.0;;;1.07;91.41
64023;BME280;50264;52.088;5.296;2023-02-14T07:00:23;103381.0;;;1.11;91.31
64023;BME280;50264;52.088;5.296;2023-02-14T07:01:59;103379.0;;;1.06;91.12
64023;BME280;50264;52.088;5.296;2023-02-14T07:05:12;103383.99999999999;;;0.98;91.42
64023;BME280;50264;52.088;5.296;2023-02-14T07:06:48;103381.0;;;1.01;91.08
64023;BME280;50264;52.088;5.296;2023-02-14T07:08:24;103378.0;;;1.08;91.05
64023;BME280;50264;52.088;5.296;2023-02-14T07:11:38;103377.0;;;0.97;91.41
64023;BME280;50264;52.088;5.296;2023-02-14T07:13:14;103378.0;;;0.87;91.51
64023;BME280;50264;52.088;5.296;2023-02-14T07:14:50;103380.0;;;0.99;91.67
64023;BME280;50264;52.088;5.296;2023-02-14T07:18:03;103383.0;;;1.01;91.46
64023;BME280;50264;52.088;5.296;2023-02-14T07:19:40;103378.0;;;0.93;91.3
64023;BME280;50264;52.088;5.296;2023-02-14T07:21:16;103380.0;;;0.99;91.68
64023;BME280;50264;52.088;5.296;2023-02-14T07:22:54;103383.99999999999;;;1.06;91.5
64023;BME280;50264;52.088;5.296;2023-02-14T07:26:07;103386.99999999999;;;1.07;91.45
64023;BME280;50264;52.088;5.296;2023-02-14T07:27:43;103380.0;;;1.07;90.99
64023;BME280;50264;52.088;5.296;2023-02-14T07:29:19;103386.99999999999;;;1.11;91.33
64023;BME280;50264;52.088;5.296;2023-02-14T07:32:35;103382.0;;;0.99;91.37
64023;BME280;50264;52.088;5.296;2023-02-14T07:34:13;103384.99999999999;;;1.01;92.12
64023;BME280;50264;52.088;5.296;2023-02-14T07:35:50;103381.0;;;1.02;91.64
64023;BME280;50264;52.088;5.296;2023-02-14T07:39:02;103380.0;;;1.22;91.87
64023;BME280;50264;52.088;5.296;2023-02-14T07:40:38;103384.99999999999;;;1.31;91.77
64023;BME280;50264;52.088;5.296;2023-02-14T07:42:14;103379.0;;;1.46;91.1
64023;BME280;50264;52.088;5.296;2023-02-14T07:43:51;103381.0;;;1.26;91.15
64023;BME280;50264;52.088;5.296;2023-02-14T07:47:04;103378.0;;;1.24;91.69
64023;BME280;50264;52.088;5.296;2023-02-14T07:48:41;103383.99999999999;;;1.28;91.53
64023;BME280;50264;52.088;5.296;2023-02-14T07:50:17;103388.00000000001;;;1.3;91.69
64023;BME280;50264;52.088;5.296;2023-02-14T07:53:30;103383.99999999999;;;1.29;92.07
64023;BME280;50264;52.088;5.296;2023-02-14T07:55:07;103382.0;;;1.29;92.52
64023;BME280;50264;52.088;5.296;2023-02-14T07:56:43;103389.00000000001;;;1.35;92.32
64023;BME280;50264;52.088;5.296;2023-02-14T07:59:56;103390.00000000001;;;1.39;92.33
64023;BME280;50264;52.088;5.296;2023-02-14T08:01:32;103391.00000000001;;;1.45;92.5
64023;BME280;50264;52.088;5.296;2023-02-14T08:03:08;103392.0;;;1.53;92.36
64023;BME280;50264;52.088;5.296;2023-02-14T08:04:44;103389.00000000001;;;1.57;92.27
64023;BME280;50264;52.088;5.296;2023-02-14T08:07:56;103388.00000000001;;;1.64;91.9
64023;BME280;50264;52.088;5.296;2023-02-14T08:09:33;103383.0;;;1.76;91.69
64023;BME280;50264;52.088;5.296;2023-02-14T08:11:09;103383.99999999999;;;1.71;90.93
64023;BME280;50264;52.088;5.296;2023-02-14T08:14:38;103378.0;;;1.72;91.8
64023;BME280;50264;52.088;5.296;2023-02-14T08:16:14;103381.0;;;1.74;91.87
64023;BME280;50264;52.088;5.296;2023-02-14T08:17:50;103383.99999999999;;;1.77;91.94
64023;BME280;50264;52.088;5.296;2023-02-14T08:19:27;103382.0;;;1.79;92.6
64023;BME280;50264;52.088;5.296;2023-02-14T08:22:42;103382.0;;;1.85;92.58
64023;BME280;50264;52.088;5.296;2023-02-14T08:24:18;103386.99999999999;;;1.82;92.61
64023;BME280;50264;52.088;5.296;2023-02-14T08:25:55;103390.00000000001;;;1.91;93.19
64023;BME280;50264;52.088;5.296;2023-02-14T08:29:07;103391.00000000001;;;1.95;92.72
64023;BME280;50264;52.088;5.296;2023-02-14T08:30:44;103390.00000000001;;;1.97;92.25
64023;BME280;50264;52.088;5.296;2023-02-14T08:32:21;103391.00000000001;;;1.97;93.64
64023;BME280;50264;52.088;5.296;2023-02-14T08:35:34;103391.00000000001;;;2.07;93.71
64023;BME280;50264;52.088;5.296;2023-02-14T08:37:10;103392.0;;;2.14;93.99
64023;BME280;50264;52.088;5.296;2023-02-14T08:38:47;103392.0;;;2.19;93.72
64023;BME280;50264;52.088;5.296;2023-02-14T08:40:24;103386.99999999999;;;2.31;93.73
64023;BME280;50264;52.088;5.296;2023-02-14T08:43:36;103391.00000000001;;;2.33;93.59
64023;BME280;50264;52.088;5.296;2023-02-14T08:45:13;103388.00000000001;;;2.4;93.79
64023;BME280;50264;52.088;5.296;2023-02-14T08:46:48;103383.99999999999;;;2.46;93.81
64023;BME280;50264;52.088;5.296;2023-02-14T08:50:03;103381.0;;;2.56;94.09
64023;BME280;50264;52.088;5.296;2023-02-14T08:51:40;103380.0;;;2.58;93.67
64023;BME280;50264;52.088;5.296;2023-02-14T08:53:16;103383.99999999999;;;2.62;94.04
64023;BME280;50264;52.088;5.296;2023-02-14T08:56:28;103382.0;;;2.69;94.24
64023;BME280;50264;52.088;5.296;2023-02-14T08:59:43;103386.99999999999;;;2.89;94.12
64023;BME280;50264;52.088;5.296;2023-02-14T09:01:20;103382.0;;;2.9;94.25
64023;BME280;50264;52.088;5.296;2023-02-14T09:04:34;103384.99999999999;;;2.98;94.65
64023;BME280;50264;52.088;5.296;2023-02-14T09:06:12;103383.99999999999;;;3.03;95.0
64023;BME280;50264;52.088;5.296;2023-02-14T09:07:49;103384.99999999999;;;3.16;95.68
64023;BME280;50264;52.088;5.296;2023-02-14T09:11:06;103386.99999999999;;;3.33;95.39
64023;BME280;50264;52.088;5.296;2023-02-14T09:12:42;103383.99999999999;;;3.36;94.92
64023;BME280;50264;52.088;5.296;2023-02-14T09:14:20;103382.0;;;3.42;94.29
64023;BME280;50264;52.088;5.296;2023-02-14T09:15:56;103380.0;;;3.59;95.25
64023;BME280;50264;52.088;5.296;2023-02-14T09:19:10;103378.0;;;3.71;95.03
64023;BME280;50264;52.088;5.296;2023-02-14T09:20:45;103369.0;;;3.88;95.62
64023;BME280;50264;52.088;5.296;2023-02-14T09:22:22;103373.0;;;3.9;95.3
64023;BME280;50264;52.088;5.296;2023-02-14T09:25:34;103370.0;;;3.95;94.55
64023;BME280;50264;52.088;5.296;2023-02-14T09:27:10;103372.0;;;4.03;95.43
64023;BME280;50264;52.088;5.296;2023-02-14T09:28:47;103365.00000000001;;;4.37;96.6
64023;BME280;50264;52.088;5.296;2023-02-14T09:32:00;103366.00000000001;;;4.43;95.53
64023;BME280;50264;52.088;5.296;2023-02-14T09:33:37;103367.0;;;4.66;95.91
64023;BME280;50264;52.088;5.296;2023-02-14T09:38:19;103365.00000000001;;;5.08;97.5
64023;BME280;50264;52.088;5.296;2023-02-14T09:39:55;103359.99999999999;;;5.25;97.35
64023;BME280;50264;52.088;5.296;2023-02-14T09:41:48;103357.0;;;5.48;96.73
64023;BME280;50264;52.088;5.296;2023-02-14T09:43:47;103357.0;;;5.65;95.96
64023;BME280;50264;52.088;5.296;2023-02-14T09:45:31;103355.0;;;5.72;95.3
64023;BME280;50264;52.088;5.296;2023-02-14T09:48:55;103349.0;;;5.81;94.87
64023;BME280;50264;52.088;5.296;2023-02-14T09:50:39;103351.0;;;5.9;94.17
64023;BME280;50264;52.088;5.296;2023-02-14T09:52:20;103353.0;;;6.03;94.09
64023;BME280;50264;52.088;5.296;2023-02-14T09:54:01;103350.0;;;6.07;93.04
64023;BME280;50264;52.088;5.296;2023-02-14T09:55:44;103348.0;;;6.24;93.6
64023;BME280;50264;52.088;5.296;2023-02-14T09:59:19;103347.0;;;6.24;93.73
64023;BME280;50264;52.088;5.296;2023-02-14T10:01:04;103346.0;;;6.46;94.38
64023;BME280;50264;52.088;5.296;2023-02-14T10:02:55;103348.0;;;6.46;93.22
64023;BME280;50264;52.088;5.296;2023-02-14T10:04:33;103345.0;;;6.77;93.72
64023;BME280;50264;52.088;5.296;2023-02-14T10:06:32;103343.0;;;6.95;92.7
64023;BME280;50264;52.088;5.296;2023-02-14T10:08:26;103349.0;;;7.09;91.9
64023;BME280;50264;52.088;5.296;2023-02-14T10:10:21;103354.0;;;7.24;91.4
64023;BME280;50264;52.088;5.296;2023-02-14T10:13:40;103348.0;;;7.33;91.59
64023;BME280;50264;52.088;5.296;2023-02-14T10:15:23;103350.0;;;7.43;91.84
64023;BME280;50264;52.088;5.296;2023-02-14T10:17:06;103348.0;;;7.61;91.28
64023;BME280;50264;52.088;5.296;2023-02-14T10:18:47;103344.0;;;7.72;90.75
64023;BME280;50264;52.088;5.296;2023-02-14T10:22:14;103342.0;;;7.69;90.28
64023;BME280;50264;52.088;5.296;2023-02-14T10:23:55;103343.0;;;7.83;88.91
64023;BME280;50264;52.088;5.296;2023-02-14T10:25:39;103342.0;;;7.99;88.07
64023;BME280;50264;52.088;5.296;2023-02-14T10:27:29;103339.00000000001;;;8.09;86.34
64023;BME280;50264;52.088;5.296;2023-02-14T10:29:12;103341.00000000001;;;8.3;85.42
64023;BME280;50264;52.088;5.296;2023-02-14T10:32:48;103346.0;;;8.32;85.91
64023;BME280;50264;52.088;5.296;2023-02-14T10:34:34;103336.99999999999;;;8.41;83.65
64023;BME280;50264;52.088;5.296;2023-02-14T10:36:22;103336.99999999999;;;8.56;83.7
64023;BME280;50264;52.088;5.296;2023-02-14T10:38:16;103329.0;;;8.74;83.7
64023;BME280;50264;52.088;5.296;2023-02-14T10:40:17;103333.0;;;8.81;83.61
64023;BME280;50264;52.088;5.296;2023-02-14T10:41:59;103332.0;;;8.91;85.22
64023;BME280;50264;52.088;5.296;2023-02-14T10:45:32;103336.99999999999;;;8.97;82.46
64023;BME280;50264;52.088;5.296;2023-02-14T10:47:25;103327.0;;;9.14;82.12
64023;BME280;50264;52.088;5.296;2023-02-14T10:49:17;103326.0;;;9.27;80.97
64023;BME280;50264;52.088;5.296;2023-02-14T10:51:05;103327.0;;;9.31;79.61
64023;BME280;50264;52.088;5.296;2023-02-14T10:52:53;103325.0;;;9.41;79.77
64023;BME280;50264;52.088;5.296;2023-02-14T10:54:41;103323.0;;;9.4;81.61
64023;BME280;50264;52.088;5.296;2023-02-14T10:56:21;103328.0;;;9.38;79.08
64023;BME280;50264;52.088;5.296;2023-02-14T10:59:50;103326.0;;;9.64;79.3
64023;BME280;50264;52.088;5.296;2023-02-14T11:01:29;103324.0;;;9.66;77.69
64023;BME280;50264;52.088;5.296;2023-02-14T11:03:07;103319.0;;;9.73;78.0
64023;BME280;50264;52.088;5.296;2023-02-14T11:04:46;103318.0;;;9.81;77.28
64023;BME280;50264;52.088;5.296;2023-02-14T11:07:59;103323.0;;;9.93;76.72
64023;BME280;50264;52.088;5.296;2023-02-14T11:09:36;103321.0;;;9.99;76.25
64023;BME280;50264;52.088;5.296;2023-02-14T11:11:16;103316.00000000001;;;10.0;76.44
64023;BME280;50264;52.088;5.296;2023-02-14T11:14:34;103314.00000000001;;;10.0;76.55
64023;BME280;50264;52.088;5.296;2023-02-14T11:16:22;103315.00000000001;;;9.92;74.66